sensor_id;sensor_type;location;lat;lon;timestamp;temperature;humidity
35395;DHT22;21500;45.308;9.488;2022-12-18T12:38:46;23.50;99.90
35395;DHT22;21500;45.308;9.488;2022-12-18T21:04:58;8.20;99.90
35395;DHT22;21500;45.308;9.488;2022-12-18T21:07:24;8.30;99.90
35395;DHT22;21500;45.308;9.488;2022-12-18T21:10:15;8.30;99.90
35395;DHT22;21500;45.308;9.488;2022-12-18T21:24:11;8.20;99.90
35395;DHT22;21500;45.308;9.488;2022-12-18T21:26:47;8.20;99.90
35395;DHT22;21500;45.308;9.488;2022-12-18T21:29:18;8.10;99.90
35395;DHT22;21500;45.308;9.488;2022-12-18T21:32:17;8.00;99.90
35395;DHT22;21500;45.308;9.488;2022-12-18T21:34:43;8.00;99.90
35395;DHT22;21500;45.308;9.488;2022-12-18T21:37:09;7.90;99.90
35395;DHT22;21500;45.308;9.488;2022-12-18T21:39:38;7.90;99.90
35395;DHT22;21500;45.308;9.488;2022-12-18T21:42:11;7.80;99.90
35395;DHT22;21500;45.308;9.488;2022-12-18T21:50:28;7.70;99.90
35395;DHT22;21500;45.308;9.488;2022-12-18T21:53:04;7.70;99.90
35395;DHT22;21500;45.308;9.488;2022-12-18T21:56:06;7.70;99.90
35395;DHT22;21500;45.308;9.488;2022-12-18T21:58:52;7.70;99.90
35395;DHT22;21500;45.308;9.488;2022-12-18T22:01:38;7.70;99.90
35395;DHT22;21500;45.308;9.488;2022-12-18T22:04:14;7.60;99.90
35395;DHT22;21500;45.308;9.488;2022-12-18T22:06:54;7.50;99.90
35395;DHT22;21500;45.308;9.488;2022-12-18T22:09:30;7.40;99.90
35395;DHT22;21500;45.308;9.488;2022-12-18T22:12:23;7.40;99.90
35395;DHT22;21500;45.308;9.488;2022-12-18T22:15:10;7.40;99.90
35395;DHT22;21500;45.308;9.488;2022-12-18T22:17:43;7.40;99.90
35395;DHT22;21500;45.308;9.488;2022-12-18T22:20:34;7.40;99.90
35395;DHT22;21500;45.308;9.488;2022-12-18T22:23:03;7.30;99.90
35395;DHT22;21500;45.308;9.488;2022-12-18T22:29:24;7.30;99.90
35395;DHT22;21500;45.308;9.488;2022-12-18T22:32:16;7.30;99.90
35395;DHT22;21500;45.308;9.488;2022-12-18T22:34:45;7.20;99.90
35395;DHT22;21500;45.308;9.488;2022-12-18T22:37:35;7.20;99.90
35395;DHT22;21500;45.308;9.488;2022-12-18T22:40:09;7.20;99.90
35395;DHT22;21500;45.308;9.488;2022-12-18T22:42:47;7.20;99.90
35395;DHT22;21500;45.308;9.488;2022-12-18T22:45:13;7.30;99.90
35395;DHT22;21500;45.308;9.488;2022-12-18T22:47:39;7.10;99.90
35395;DHT22;21500;45.308;9.488;2022-12-18T22:50:14;7.10;99.90
35395;DHT22;21500;45.308;9.488;2022-12-18T22:52:40;7.00;99.90
35395;DHT22;21500;45.308;9.488;2022-12-18T22:55:31;6.80;99.90
35395;DHT22;21500;45.308;9.488;2022-12-18T22:58:01;6.70;99.90
35395;DHT22;21500;45.308;9.488;2022-12-18T23:00:52;6.60;99.90
35395;DHT22;21500;45.308;9.488;2022-12-18T23:03:18;6.70;99.90
35395;DHT22;21500;45.308;9.488;2022-12-18T23:05:48;6.70;99.90
35395;DHT22;21500;45.308;9.488;2022-12-18T23:08:18;6.60;99.90
35395;DHT22;21500;45.308;9.488;2022-12-18T23:10:59;6.40;99.90
35395;DHT22;21500;45.308;9.488;2022-12-18T23:13:26;6.50;99.90
35395;DHT22;21500;45.308;9.488;2022-12-18T23:16:34;6.40;99.90
35395;DHT22;21500;45.308;9.488;2022-12-18T23:19:18;6.30;99.90
35395;DHT22;21500;45.308;9.488;2022-12-18T23:22:21;6.20;99.90
35395;DHT22;21500;45.308;9.488;2022-12-18T23:24:47;6.10;99.90
35395;DHT22;21500;45.308;9.488;2022-12-18T23:27:15;6.00;99.90
35395;DHT22;21500;45.308;9.488;2022-12-18T23:30:10;6.00;99.90
35395;DHT22;21500;45.308;9.488;2022-12-18T23:33:03;6.00;99.90
35395;DHT22;21500;45.308;9.488;2022-12-18T23:36:01;6.00;99.90
35395;DHT22;21500;45.308;9.488;2022-12-18T23:38:35;5.90;99.90
35395;DHT22;21500;45.308;9.488;2022-12-18T23:41:48;5.90;99.90
35395;DHT22;21500;45.308;9.488;2022-12-18T23:44:14;5.80;99.90
35395;DHT22;21500;45.308;9.488;2022-12-18T23:46:41;5.80;99.90
35395;DHT22;21500;45.308;9.488;2022-12-18T23:49:10;5.80;99.90
35395;DHT22;21500;45.308;9.488;2022-12-18T23:51:37;5.80;99.90
35395;DHT22;21500;45.308;9.488;2022-12-18T23:54:06;5.80;99.90
35395;DHT22;21500;45.308;9.488;2022-12-18T23:56:37;5.70;99.90
